AFR199 LFPG-VTBD
Flight info
| Callsign | AFR199 |
|---|---|
| Flight time | N/A |
| Altitude | 35000 |
| Route | LANVI DCT LUPEN DCT BATUB DCT MOMUK DCT BERAS T23 BIRGI DCT INGID/N0485F370 DCT GOTAR DCT INVED DCT DINRO DCT UDROS UM859 KARDE UN644 ROLIN N644 TETRO DCT BARAD M747 SUBUT/N0482F390 M747 BODKA B375 NENIS B353 SOMAD N567 BJD G775 ZDN N319 DERBO G452 MERUN L333 BAVOX/N0490F410 L333 KKJ B209 JJS Z12 DOPID P646 TARED WEHHA3A |
| Aircraft | A359/H-SDE2E3GHIJ3J4J5LM1ORWXY/LB1D1 |
Departure
| Time | 2026-05-01 10:43 |
|---|---|
| Airport | Charles de Gaulle International Airport (LFPG) |
Arrival
| Time | N/A |
|---|---|
| Airport | Don Mueang International Airport (VTBD) |
| Time | Latitude | Longitude | Altitude | Speed | Heading |
|---|---|---|---|---|---|
| 2026-05-01 10:02 | 49.00152 | 2.57919 | 361 ft | 0 kts | 355° |
| 2026-05-01 10:20 | 49.00171 | 2.57916 | 367 ft | 0 kts | 355° |
| 2026-05-01 10:20 | 49.00171 | 2.57914 | 367 ft | 0 kts | 355° |
| 2026-05-01 10:20 | 49.00171 | 2.57913 | 366 ft | 0 kts | 355° |
| 2026-05-01 10:20 | 49.00171 | 2.57911 | 366 ft | 0 kts | 355° |
| 2026-05-01 10:21 | 49.00171 | 2.57909 | 366 ft | 0 kts | 355° |
| 2026-05-01 10:21 | 49.00171 | 2.57908 | 366 ft | 0 kts | 355° |
| 2026-05-01 10:23 | 49.00162 | 2.57909 | 368 ft | 0 kts | 355° |
| 2026-05-01 10:27 | 49.00149 | 2.57911 | 366 ft | 3 kts | 340° |
| 2026-05-01 10:28 | 49.00129 | 2.57922 | 366 ft | 3 kts | 350° |
| 2026-05-01 10:28 | 49.00088 | 2.57928 | 360 ft | 3 kts | 13° |
| 2026-05-01 10:28 | 49.00074 | 2.57915 | 367 ft | 3 kts | 71° |
| 2026-05-01 10:29 | 49.00069 | 2.57861 | 364 ft | 1 kts | 85° |
| 2026-05-01 10:29 | 49.00069 | 2.57859 | 364 ft | 0 kts | 85° |
| 2026-05-01 10:34 | 49.00069 | 2.57875 | 361 ft | 4 kts | 85° |
| 2026-05-01 10:34 | 49.00074 | 2.57950 | 368 ft | 10 kts | 85° |
| 2026-05-01 10:34 | 49.00081 | 2.58080 | 367 ft | 15 kts | 85° |
| 2026-05-01 10:35 | 49.00040 | 2.58310 | 368 ft | 11 kts | 190° |
| 2026-05-01 10:35 | 49.00007 | 2.58200 | 364 ft | 14 kts | 263° |
| 2026-05-01 10:35 | 48.99996 | 2.58005 | 367 ft | 23 kts | 265° |
| 2026-05-01 10:35 | 48.99980 | 2.57724 | 364 ft | 30 kts | 265° |
| 2026-05-01 10:36 | 48.99945 | 2.57052 | 367 ft | 31 kts | 264° |
| 2026-05-01 10:36 | 48.99926 | 2.56724 | 365 ft | 31 kts | 265° |
| 2026-05-01 10:36 | 48.99907 | 2.56401 | 362 ft | 30 kts | 264° |
| 2026-05-01 10:37 | 48.99896 | 2.56168 | 360 ft | 8 kts | 266° |
| 2026-05-01 10:37 | 48.99851 | 2.56022 | 369 ft | 8 kts | 200° |
| 2026-05-01 10:37 | 48.99811 | 2.55967 | 369 ft | 8 kts | 239° |
| 2026-05-01 10:38 | 48.99786 | 2.55884 | 367 ft | 9 kts | 243° |
| 2026-05-01 10:38 | 48.99776 | 2.55859 | 367 ft | 0 kts | 237° |
| 2026-05-01 10:38 | 48.99770 | 2.55846 | 369 ft | 2 kts | 233° |
| 2026-05-01 10:39 | 48.99769 | 2.55844 | 369 ft | 0 kts | 233° |
| 2026-05-01 10:39 | 48.99764 | 2.55836 | 369 ft | 3 kts | 227° |
| 2026-05-01 10:39 | 48.99728 | 2.55812 | 367 ft | 6 kts | 188° |
| 2026-05-01 10:39 | 48.99710 | 2.55813 | 364 ft | 0 kts | 175° |
| 2026-05-01 10:40 | 48.99709 | 2.55813 | 364 ft | 0 kts | 175° |
| 2026-05-01 10:40 | 48.99703 | 2.55814 | 365 ft | 3 kts | 175° |
| 2026-05-01 10:41 | 48.99658 | 2.55821 | 366 ft | 10 kts | 172° |
| 2026-05-01 10:41 | 48.99606 | 2.55894 | 368 ft | 9 kts | 101° |
| 2026-05-01 10:41 | 48.99610 | 2.56043 | 365 ft | 27 kts | 85° |
| 2026-05-01 10:42 | 48.99642 | 2.56641 | 369 ft | 85 kts | 85° |
| 2026-05-01 10:42 | 48.99704 | 2.57801 | 367 ft | 133 kts | 85° |
| 2026-05-01 10:42 | 48.99790 | 2.59425 | 392 ft | 171 kts | 86° |
| 2026-05-01 10:42 | 48.99885 | 2.61162 | 991 ft | 165 kts | 88° |
| 2026-05-01 10:43 | 48.99945 | 2.62383 | 1176 ft | 177 kts | 88° |
| 2026-05-01 10:43 | 49.00081 | 2.64996 | 1641 ft | 199 kts | 87° |
| 2026-05-01 10:43 | 49.00160 | 2.66466 | 1815 ft | 215 kts | 86° |
| 2026-05-01 10:43 | 49.00282 | 2.68864 | 2009 ft | 240 kts | 87° |
| 2026-05-01 10:44 | 49.00415 | 2.71509 | 2353 ft | 258 kts | 86° |
| 2026-05-01 10:44 | 49.00571 | 2.74272 | 2989 ft | 266 kts | 87° |
| 2026-05-01 10:44 | 49.00641 | 2.77095 | 3664 ft | 267 kts | 95° |
| 2026-05-01 10:44 | 49.00443 | 2.79900 | 4426 ft | 265 kts | 100° |
| 2026-05-01 10:45 | 49.00174 | 2.82676 | 5162 ft | 265 kts | 100° |
| 2026-05-01 10:45 | 48.99891 | 2.85459 | 5811 ft | 267 kts | 101° |
| 2026-05-01 10:45 | 48.99608 | 2.88269 | 6441 ft | 271 kts | 101° |
| 2026-05-01 10:45 | 48.99325 | 2.91075 | 7097 ft | 273 kts | 101° |
| 2026-05-01 10:46 | 48.99036 | 2.93949 | 7734 ft | 276 kts | 100° |
| 2026-05-01 10:46 | 48.98751 | 2.96851 | 8421 ft | 278 kts | 99° |
| 2026-05-01 10:46 | 48.98395 | 3.01102 | 9402 ft | 283 kts | 98° |
| 2026-05-01 10:46 | 48.97905 | 3.07117 | 10608 ft | 295 kts | 99° |
| 2026-05-01 10:47 | 48.97354 | 3.13677 | 11121 ft | 330 kts | 99° |
| 2026-05-01 10:47 | 48.96740 | 3.20945 | 11610 ft | 362 kts | 99° |
| 2026-05-01 10:47 | 48.96076 | 3.28761 | 12412 ft | 378 kts | 99° |
| 2026-05-01 10:47 | 48.95391 | 3.36748 | 13620 ft | 382 kts | 99° |
| 2026-05-01 10:48 | 48.94693 | 3.44801 | 14677 ft | 388 kts | 99° |
| 2026-05-01 10:48 | 48.93975 | 3.52999 | 15673 ft | 394 kts | 99° |
| 2026-05-01 10:48 | 48.93399 | 3.61363 | 16709 ft | 401 kts | 96° |
| 2026-05-01 10:48 | 48.92994 | 3.69877 | 17727 ft | 408 kts | 96° |
| 2026-05-01 10:49 | 48.92549 | 3.78555 | 18703 ft | 414 kts | 97° |
| 2026-05-01 10:49 | 48.92079 | 3.87311 | 19677 ft | 417 kts | 97° |
| 2026-05-01 10:49 | 48.91594 | 3.96139 | 20674 ft | 421 kts | 97° |
| 2026-05-01 10:49 | 48.91097 | 4.05052 | 21701 ft | 426 kts | 97° |
| 2026-05-01 10:50 | 48.90587 | 4.14066 | 22725 ft | 430 kts | 97° |
| 2026-05-01 10:50 | 48.89593 | 4.23017 | 23716 ft | 431 kts | 110° |
| 2026-05-01 10:50 | 48.87014 | 4.31247 | 24551 ft | 434 kts | 120° |
| 2026-05-01 10:50 | 48.84046 | 4.39284 | 25240 ft | 441 kts | 120° |
| 2026-05-01 10:51 | 48.81024 | 4.47478 | 25989 ft | 447 kts | 120° |
| 2026-05-01 10:51 | 48.77972 | 4.55756 | 26789 ft | 451 kts | 120° |
| 2026-05-01 10:51 | 48.74891 | 4.64095 | 27558 ft | 456 kts | 120° |
| 2026-05-01 10:51 | 48.71768 | 4.72522 | 28310 ft | 461 kts | 120° |
| 2026-05-01 10:52 | 48.68608 | 4.81022 | 28939 ft | 467 kts | 120° |
| 2026-05-01 10:52 | 48.65395 | 4.89638 | 29513 ft | 472 kts | 120° |
| 2026-05-01 10:52 | 48.62153 | 4.98303 | 30204 ft | 474 kts | 120° |
| 2026-05-01 10:52 | 48.58908 | 5.06944 | 30990 ft | 471 kts | 120° |
| 2026-05-01 10:53 | 48.55669 | 5.15544 | 31662 ft | 470 kts | 120° |
| 2026-05-01 10:53 | 48.52471 | 5.24007 | 32177 ft | 472 kts | 120° |
| 2026-05-01 10:53 | 48.49224 | 5.32574 | 32841 ft | 469 kts | 120° |
| 2026-05-01 10:53 | 48.45984 | 5.41093 | 33469 ft | 468 kts | 120° |
| 2026-05-01 10:54 | 48.42746 | 5.49582 | 34024 ft | 467 kts | 121° |
| 2026-05-01 10:54 | 48.39507 | 5.58045 | 34494 ft | 466 kts | 121° |
| 2026-05-01 10:54 | 48.36255 | 5.66512 | 34758 ft | 469 kts | 120° |
| 2026-05-01 10:54 | 48.33243 | 5.75192 | 35127 ft | 469 kts | 111° |
| 2026-05-01 10:55 | 48.31823 | 5.84759 | 35289 ft | 475 kts | 94° |
| 2026-05-01 10:55 | 48.32866 | 6.04641 | 35289 ft | 478 kts | 84° |
| 2026-05-01 10:56 | 48.34326 | 6.24547 | 35296 ft | 479 kts | 84° |
| 2026-05-01 10:56 | 48.35671 | 6.44488 | 35298 ft | 479 kts | 85° |
| 2026-05-01 10:57 | 48.36979 | 6.64443 | 35293 ft | 480 kts | 84° |
| 2026-05-01 10:57 | 48.38246 | 6.84276 | 35294 ft | 480 kts | 84° |
| 2026-05-01 10:58 | 48.39483 | 7.04188 | 35305 ft | 476 kts | 84° |
| 2026-05-01 10:58 | 48.40681 | 7.24008 | 35312 ft | 476 kts | 84° |
| 2026-05-01 10:59 | 48.41846 | 7.43883 | 35331 ft | 478 kts | 84° |
| 2026-05-01 10:59 | 48.42983 | 7.63852 | 35325 ft | 479 kts | 84° |
| 2026-05-01 10:59 | 48.42956 | 7.73857 | 35321 ft | 480 kts | 97° |
| 2026-05-01 11:00 | 48.41329 | 7.83614 | 35323 ft | 482 kts | 105° |
| 2026-05-01 11:00 | 48.37101 | 8.02737 | 35326 ft | 482 kts | 107° |
| 2026-05-01 11:01 | 48.32834 | 8.21841 | 35324 ft | 482 kts | 107° |
| 2026-05-01 11:01 | 48.28570 | 8.40922 | 35325 ft | 482 kts | 107° |
| 2026-05-01 11:02 | 48.24269 | 8.59984 | 35315 ft | 482 kts | 107° |
| 2026-05-01 11:02 | 48.19918 | 8.79094 | 35317 ft | 485 kts | 107° |
| 2026-05-01 11:03 | 48.15527 | 8.98204 | 35327 ft | 485 kts | 108° |
| 2026-05-01 11:03 | 48.11110 | 9.17259 | 35330 ft | 484 kts | 107° |
| 2026-05-01 11:04 | 48.06664 | 9.36275 | 35326 ft | 484 kts | 107° |
| 2026-05-01 11:04 | 48.02134 | 9.55023 | 35331 ft | 485 kts | 112° |
| 2026-05-01 11:05 | 47.95303 | 9.72466 | 35328 ft | 487 kts | 120° |
| 2026-05-01 11:05 | 47.88100 | 9.89587 | 35329 ft | 487 kts | 119° |
| 2026-05-01 11:06 | 47.81844 | 10.07323 | 35333 ft | 483 kts | 109° |
| 2026-05-01 11:06 | 47.76978 | 10.25911 | 35314 ft | 482 kts | 108° |
| 2026-05-01 11:07 | 47.69640 | 10.53711 | 35319 ft | 482 kts | 108° |
| 2026-05-01 11:07 | 47.64702 | 10.72167 | 35317 ft | 481 kts | 108° |
| 2026-05-01 11:08 | 47.59743 | 10.90566 | 35316 ft | 481 kts | 108° |
| 2026-05-01 11:09 | 47.52262 | 11.18057 | 35327 ft | 480 kts | 108° |
| 2026-05-01 11:09 | 47.47242 | 11.36317 | 35316 ft | 479 kts | 108° |
| 2026-05-01 11:10 | 47.39680 | 11.63579 | 35343 ft | 478 kts | 108° |
| 2026-05-01 11:10 | 47.35604 | 11.81990 | 35337 ft | 466 kts | 94° |
| 2026-05-01 11:11 | 47.34273 | 12.00960 | 35338 ft | 464 kts | 88° |
| 2026-05-01 11:11 | 47.33707 | 12.19925 | 35337 ft | 464 kts | 89° |
| 2026-05-01 11:12 | 47.32957 | 12.38917 | 35342 ft | 463 kts | 89° |
| 2026-05-01 11:12 | 47.32152 | 12.57856 | 35337 ft | 462 kts | 89° |
| 2026-05-01 11:13 | 47.31325 | 12.76733 | 35334 ft | 461 kts | 89° |
| 2026-05-01 11:13 | 47.30476 | 12.95468 | 35352 ft | 462 kts | 89° |
| 2026-05-01 11:14 | 47.29589 | 13.14268 | 35336 ft | 459 kts | 90° |
| 2026-05-01 11:14 | 47.28671 | 13.33055 | 35349 ft | 460 kts | 90° |
| 2026-05-01 11:15 | 47.27726 | 13.51813 | 35351 ft | 459 kts | 90° |
| 2026-05-01 11:15 | 47.26745 | 13.70506 | 35885 ft | 454 kts | 91° |
| 2026-05-01 11:16 | 47.25940 | 13.79717 | 36375 ft | 454 kts | 94° |
| 2026-05-01 11:16 | 47.24964 | 13.88893 | 36751 ft | 453 kts | 94° |
| 2026-05-01 11:16 | 47.24018 | 13.98034 | 37070 ft | 452 kts | 94° |
| 2026-05-01 11:16 | 47.23105 | 14.07211 | 37202 ft | 455 kts | 93° |
| 2026-05-01 11:17 | 47.22198 | 14.16432 | 37368 ft | 457 kts | 94° |
| 2026-05-01 11:17 | 47.21276 | 14.25712 | 37373 ft | 459 kts | 93° |
| 2026-05-01 11:17 | 47.19398 | 14.44273 | 37373 ft | 459 kts | 93° |
| 2026-05-01 11:18 | 47.17492 | 14.62831 | 37377 ft | 458 kts | 93° |
| 2026-05-01 11:18 | 47.15561 | 14.81322 | 37375 ft | 458 kts | 93° |
| 2026-05-01 11:19 | 47.13593 | 14.99851 | 37402 ft | 459 kts | 93° |
| 2026-05-01 11:19 | 47.11604 | 15.18316 | 37368 ft | 458 kts | 94° |
| 2026-05-01 11:20 | 47.09585 | 15.36761 | 37371 ft | 458 kts | 94° |
| 2026-05-01 11:20 | 47.07534 | 15.55204 | 37374 ft | 457 kts | 94° |
| 2026-05-01 11:21 | 47.05459 | 15.73596 | 37377 ft | 457 kts | 94° |
| 2026-05-01 11:21 | 47.03352 | 15.91985 | 37378 ft | 457 kts | 94° |
| 2026-05-01 11:22 | 47.01218 | 16.10343 | 37377 ft | 457 kts | 94° |
| 2026-05-01 11:22 | 46.98914 | 16.28657 | 37376 ft | 460 kts | 98° |
| 2026-05-01 11:23 | 46.95429 | 16.46775 | 37379 ft | 462 kts | 99° |
| 2026-05-01 11:23 | 46.92054 | 16.64890 | 37373 ft | 461 kts | 98° |
| 2026-05-01 11:24 | 46.88710 | 16.83001 | 37370 ft | 461 kts | 99° |
| 2026-05-01 11:25 | 46.83634 | 17.10083 | 37374 ft | 462 kts | 99° |
| 2026-05-01 11:25 | 46.78487 | 17.37159 | 37373 ft | 461 kts | 99° |
| 2026-05-01 11:26 | 46.73274 | 17.64187 | 37367 ft | 462 kts | 99° |
| 2026-05-01 11:27 | 46.69761 | 17.82188 | 37360 ft | 462 kts | 99° |
| 2026-05-01 11:27 | 46.66221 | 18.00161 | 37358 ft | 462 kts | 99° |
| 2026-05-01 11:28 | 46.62675 | 18.18003 | 37357 ft | 462 kts | 100° |
| 2026-05-01 11:28 | 46.59049 | 18.36075 | 37360 ft | 462 kts | 100° |
| 2026-05-01 11:29 | 46.53618 | 18.62844 | 37359 ft | 463 kts | 101° |
| 2026-05-01 11:30 | 46.48089 | 18.89731 | 37365 ft | 464 kts | 101° |
| 2026-05-01 11:30 | 46.44360 | 19.07665 | 37363 ft | 465 kts | 101° |
| 2026-05-01 11:31 | 46.40599 | 19.25590 | 37365 ft | 465 kts | 101° |
| 2026-05-01 11:31 | 46.36793 | 19.43573 | 37357 ft | 467 kts | 101° |
| 2026-05-01 11:32 | 46.32955 | 19.61546 | 37363 ft | 468 kts | 102° |
| 2026-05-01 11:32 | 46.29728 | 19.76545 | 37352 ft | 471 kts | 102° |
| 2026-05-01 11:33 | 46.25808 | 19.94605 | 37351 ft | 471 kts | 102° |
| 2026-05-01 11:33 | 46.21858 | 20.12650 | 37344 ft | 471 kts | 102° |
| 2026-05-01 11:34 | 46.17885 | 20.30657 | 37345 ft | 471 kts | 102° |
| 2026-05-01 11:34 | 46.13760 | 20.48756 | 37333 ft | 477 kts | 105° |
| 2026-05-01 11:35 | 46.09244 | 20.66753 | 37323 ft | 477 kts | 105° |
| 2026-05-01 11:35 | 46.04751 | 20.84820 | 37321 ft | 481 kts | 105° |
| 2026-05-01 11:36 | 46.00221 | 21.02932 | 37316 ft | 481 kts | 105° |
| 2026-05-01 11:36 | 45.95648 | 21.21069 | 37314 ft | 483 kts | 106° |
| 2026-05-01 11:37 | 45.91036 | 21.39211 | 37336 ft | 483 kts | 106° |
| 2026-05-01 11:37 | 45.86381 | 21.57387 | 37308 ft | 486 kts | 106° |
| 2026-05-01 11:38 | 45.81713 | 21.75465 | 37320 ft | 486 kts | 107° |
| 2026-05-01 11:38 | 45.76975 | 21.93671 | 37295 ft | 488 kts | 107° |
| 2026-05-01 11:39 | 45.72198 | 22.11885 | 37300 ft | 489 kts | 107° |
| 2026-05-01 11:39 | 45.67379 | 22.30120 | 37291 ft | 491 kts | 107° |
| 2026-05-01 11:40 | 45.62522 | 22.48357 | 37289 ft | 492 kts | 108° |
| 2026-05-01 11:40 | 45.57612 | 22.66651 | 37278 ft | 494 kts | 108° |
| 2026-05-01 11:41 | 45.52668 | 22.84930 | 37272 ft | 495 kts | 108° |
| 2026-05-01 11:41 | 45.47678 | 23.03235 | 37266 ft | 496 kts | 108° |
| 2026-05-01 11:42 | 45.42655 | 23.21526 | 37260 ft | 497 kts | 109° |
| 2026-05-01 11:42 | 45.37584 | 23.39852 | 37264 ft | 498 kts | 109° |
| 2026-05-01 11:43 | 45.32484 | 23.58134 | 37265 ft | 498 kts | 109° |
| 2026-05-01 11:43 | 45.27354 | 23.76401 | 37267 ft | 498 kts | 109° |
| 2026-05-01 11:44 | 45.19574 | 24.03840 | 37268 ft | 501 kts | 110° |
| 2026-05-01 11:44 | 45.14335 | 24.22146 | 37273 ft | 502 kts | 110° |
| 2026-05-01 11:45 | 45.09053 | 24.40466 | 37277 ft | 502 kts | 110° |
| 2026-05-01 11:45 | 45.03741 | 24.58753 | 37282 ft | 504 kts | 111° |
| 2026-05-01 11:46 | 44.98384 | 24.77059 | 37283 ft | 504 kts | 111° |
| 2026-05-01 11:46 | 44.92989 | 24.95363 | 37289 ft | 506 kts | 111° |
| 2026-05-01 11:47 | 44.87551 | 25.13676 | 37292 ft | 506 kts | 111° |
| 2026-05-01 11:47 | 44.82080 | 25.31973 | 37297 ft | 507 kts | 112° |
| 2026-05-01 11:48 | 44.76570 | 25.50262 | 37301 ft | 507 kts | 112° |
| 2026-05-01 11:48 | 44.71032 | 25.68514 | 37308 ft | 507 kts | 112° |
| 2026-05-01 11:49 | 44.65497 | 25.86626 | 37315 ft | 508 kts | 112° |
| 2026-05-01 11:49 | 44.59887 | 26.04853 | 37320 ft | 509 kts | 113° |
| 2026-05-01 11:50 | 44.54244 | 26.23061 | 37319 ft | 509 kts | 113° |
| 2026-05-01 11:50 | 44.48569 | 26.41242 | 37312 ft | 509 kts | 113° |
| 2026-05-01 11:51 | 44.42859 | 26.59407 | 37306 ft | 510 kts | 114° |
| 2026-05-01 11:51 | 44.37111 | 26.77565 | 37303 ft | 510 kts | 114° |
| 2026-05-01 11:52 | 44.31336 | 26.95685 | 37303 ft | 511 kts | 114° |
| 2026-05-01 11:52 | 44.25531 | 27.13773 | 37291 ft | 511 kts | 114° |
| 2026-05-01 11:53 | 44.19683 | 27.31866 | 37298 ft | 512 kts | 114° |
| 2026-05-01 11:53 | 44.13801 | 27.49944 | 37287 ft | 513 kts | 115° |
| 2026-05-01 11:54 | 44.07878 | 27.68023 | 37287 ft | 513 kts | 115° |
| 2026-05-01 11:54 | 44.01924 | 27.86073 | 37279 ft | 514 kts | 115° |
| 2026-05-01 11:55 | 43.95939 | 28.04095 | 37279 ft | 514 kts | 116° |
| 2026-05-01 11:55 | 43.89920 | 28.22094 | 37271 ft | 514 kts | 116° |
| 2026-05-01 11:56 | 43.83870 | 28.40069 | 37268 ft | 515 kts | 116° |
| 2026-05-01 11:56 | 43.77822 | 28.57920 | 37265 ft | 515 kts | 116° |
| 2026-05-01 11:57 | 43.71702 | 28.75862 | 37268 ft | 516 kts | 116° |
| 2026-05-01 11:57 | 43.63987 | 28.92455 | 37261 ft | 513 kts | 128° |
| 2026-05-01 11:58 | 43.55575 | 29.08373 | 37265 ft | 513 kts | 128° |
| 2026-05-01 11:59 | 43.42973 | 29.32203 | 37259 ft | 514 kts | 128° |
| 2026-05-01 11:59 | 43.34540 | 29.48054 | 37249 ft | 514 kts | 129° |
| 2026-05-01 12:00 | 43.21841 | 29.71760 | 37243 ft | 514 kts | 129° |
| 2026-05-01 12:01 | 43.09100 | 29.95357 | 37227 ft | 513 kts | 130° |
| 2026-05-01 12:01 | 43.00584 | 30.11023 | 37227 ft | 513 kts | 130° |
| 2026-05-01 12:02 | 42.92100 | 30.26549 | 37213 ft | 513 kts | 130° |
| 2026-05-01 12:02 | 42.83547 | 30.42120 | 37227 ft | 513 kts | 130° |
| 2026-05-01 12:03 | 42.75297 | 30.57972 | 37212 ft | 518 kts | 120° |
| 2026-05-01 12:03 | 42.73108 | 30.67348 | 37202 ft | 526 kts | 103° |
| 2026-05-01 12:03 | 42.71994 | 30.77194 | 37199 ft | 528 kts | 100° |
| 2026-05-01 12:04 | 42.70074 | 30.97044 | 37191 ft | 530 kts | 101° |
| 2026-05-01 12:04 | 42.68017 | 31.16879 | 37190 ft | 530 kts | 101° |
| 2026-05-01 12:05 | 42.65908 | 31.36710 | 37193 ft | 531 kts | 101° |
| 2026-05-01 12:05 | 42.62686 | 31.66446 | 37184 ft | 531 kts | 102° |
| 2026-05-01 12:06 | 42.60493 | 31.86261 | 37160 ft | 531 kts | 103° |
| 2026-05-01 12:06 | 42.58276 | 32.06064 | 37169 ft | 531 kts | 102° |
| 2026-05-01 12:07 | 42.56031 | 32.25830 | 37169 ft | 530 kts | 103° |
| 2026-05-01 12:07 | 42.53736 | 32.45547 | 37151 ft | 529 kts | 103° |
| 2026-05-01 12:08 | 42.51412 | 32.65268 | 37155 ft | 530 kts | 104° |
| 2026-05-01 12:08 | 42.49053 | 32.84981 | 37154 ft | 530 kts | 104° |
| 2026-05-01 12:09 | 42.46662 | 33.04669 | 37148 ft | 530 kts | 104° |
| 2026-05-01 12:09 | 42.44233 | 33.24344 | 37145 ft | 530 kts | 104° |
| 2026-05-01 12:10 | 42.40537 | 33.53768 | 37139 ft | 529 kts | 104° |
| 2026-05-01 12:11 | 42.36764 | 33.83185 | 37137 ft | 529 kts | 104° |
| 2026-05-01 12:11 | 42.34215 | 34.02794 | 37125 ft | 529 kts | 104° |
| 2026-05-01 12:12 | 42.31634 | 34.22342 | 37128 ft | 528 kts | 105° |
| 2026-05-01 12:12 | 42.29044 | 34.41738 | 37119 ft | 527 kts | 105° |
| 2026-05-01 12:13 | 42.26392 | 34.61288 | 37120 ft | 526 kts | 105° |
| 2026-05-01 12:13 | 42.23739 | 34.80569 | 37106 ft | 525 kts | 105° |
| 2026-05-01 12:14 | 42.21041 | 34.99922 | 37100 ft | 525 kts | 105° |
| 2026-05-01 12:14 | 42.18308 | 35.19226 | 37091 ft | 523 kts | 105° |
| 2026-05-01 12:15 | 42.15555 | 35.38449 | 37086 ft | 522 kts | 105° |
| 2026-05-01 12:15 | 42.12779 | 35.57650 | 37076 ft | 522 kts | 106° |
| 2026-05-01 12:16 | 42.09968 | 35.76830 | 37044 ft | 522 kts | 106° |
| 2026-05-01 12:16 | 42.07135 | 35.95953 | 37069 ft | 521 kts | 106° |
| 2026-05-01 12:17 | 42.04267 | 36.15069 | 37051 ft | 521 kts | 106° |
| 2026-05-01 12:17 | 42.01368 | 36.34166 | 37053 ft | 521 kts | 106° |
| 2026-05-01 12:18 | 41.98437 | 36.53252 | 37046 ft | 521 kts | 106° |
| 2026-05-01 12:18 | 41.95474 | 36.72320 | 37048 ft | 521 kts | 107° |
| 2026-05-01 12:19 | 41.92484 | 36.91347 | 37040 ft | 520 kts | 107° |
| 2026-05-01 12:19 | 41.90309 | 37.10561 | 37030 ft | 526 kts | 96° |
| 2026-05-01 12:20 | 41.89998 | 37.30197 | 37027 ft | 525 kts | 95° |
| 2026-05-01 12:20 | 41.89705 | 37.49769 | 37020 ft | 524 kts | 95° |
| 2026-05-01 12:21 | 41.89350 | 37.69324 | 37022 ft | 523 kts | 95° |
| 2026-05-01 12:21 | 41.88963 | 37.88822 | 37020 ft | 523 kts | 95° |
| 2026-05-01 12:22 | 41.88617 | 38.05035 | 37005 ft | 522 kts | 95° |
| 2026-05-01 12:22 | 41.88172 | 38.24491 | 37003 ft | 522 kts | 95° |
| 2026-05-01 12:23 | 41.87693 | 38.43957 | 36973 ft | 522 kts | 95° |
| 2026-05-01 12:23 | 41.87183 | 38.63382 | 36999 ft | 521 kts | 96° |
| 2026-05-01 12:24 | 41.86639 | 38.82803 | 37002 ft | 521 kts | 96° |
| 2026-05-01 12:24 | 41.86063 | 39.02228 | 37001 ft | 522 kts | 96° |
| 2026-05-01 12:25 | 41.85141 | 39.31262 | 36986 ft | 521 kts | 96° |
| 2026-05-01 12:26 | 41.84480 | 39.50787 | 36991 ft | 520 kts | 96° |
| 2026-05-01 12:26 | 41.83440 | 39.79735 | 36986 ft | 520 kts | 96° |
| 2026-05-01 12:27 | 41.82319 | 40.08931 | 36982 ft | 520 kts | 96° |
| 2026-05-01 12:28 | 41.81128 | 40.37966 | 36979 ft | 520 kts | 96° |
| 2026-05-01 12:29 | 41.79868 | 40.66838 | 36977 ft | 520 kts | 96° |
| 2026-05-01 12:29 | 41.78439 | 40.95827 | 36960 ft | 519 kts | 97° |
| 2026-05-01 12:30 | 41.76942 | 41.24761 | 36978 ft | 519 kts | 97° |
| 2026-05-01 12:31 | 41.75905 | 41.44038 | 37004 ft | 518 kts | 97° |
| 2026-05-01 12:31 | 41.74837 | 41.63281 | 37013 ft | 518 kts | 97° |
| 2026-05-01 12:32 | 41.73737 | 41.82527 | 37004 ft | 517 kts | 98° |
| 2026-05-01 12:32 | 41.72033 | 42.11279 | 36968 ft | 516 kts | 98° |
| 2026-05-01 12:33 | 41.70858 | 42.30404 | 36955 ft | 515 kts | 98° |
| 2026-05-01 12:33 | 41.69647 | 42.49507 | 36953 ft | 515 kts | 98° |
| 2026-05-01 12:34 | 41.68406 | 42.68611 | 36950 ft | 515 kts | 98° |
| 2026-05-01 12:34 | 41.67134 | 42.87684 | 36946 ft | 515 kts | 99° |
| 2026-05-01 12:35 | 41.64654 | 43.06439 | 36955 ft | 512 kts | 104° |
| 2026-05-01 12:35 | 41.62044 | 43.25145 | 36968 ft | 512 kts | 103° |
| 2026-05-01 12:36 | 41.59518 | 43.43870 | 36982 ft | 512 kts | 103° |
| 2026-05-01 12:36 | 41.56957 | 43.62567 | 36996 ft | 512 kts | 104° |
| 2026-05-01 12:37 | 41.54361 | 43.81266 | 37022 ft | 513 kts | 104° |
| 2026-05-01 12:37 | 41.51727 | 44.00002 | 37053 ft | 515 kts | 104° |
| 2026-05-01 12:38 | 41.49050 | 44.18815 | 37061 ft | 516 kts | 104° |
| 2026-05-01 12:38 | 41.46343 | 44.37617 | 37070 ft | 516 kts | 104° |
| 2026-05-01 12:39 | 41.43603 | 44.56405 | 37069 ft | 516 kts | 104° |
| 2026-05-01 12:39 | 41.40835 | 44.75166 | 37064 ft | 516 kts | 104° |
| 2026-05-01 12:40 | 41.38037 | 44.93910 | 37059 ft | 515 kts | 104° |
| 2026-05-01 12:40 | 41.34794 | 45.12428 | 37058 ft | 511 kts | 111° |
| 2026-05-01 12:41 | 41.30241 | 45.30338 | 37061 ft | 511 kts | 112° |
| 2026-05-01 12:41 | 41.25611 | 45.48169 | 37056 ft | 509 kts | 112° |
| 2026-05-01 12:42 | 41.20990 | 45.65922 | 37054 ft | 508 kts | 112° |
| 2026-05-01 12:42 | 41.16330 | 45.83630 | 37051 ft | 508 kts | 112° |
| 2026-05-01 12:43 | 41.11639 | 46.01307 | 37064 ft | 508 kts | 112° |
| 2026-05-01 12:43 | 41.06956 | 46.18843 | 37077 ft | 508 kts | 112° |
| 2026-05-01 12:44 | 41.02217 | 46.36502 | 37084 ft | 509 kts | 113° |
| 2026-05-01 12:45 | 40.92724 | 46.71846 | 37081 ft | 510 kts | 113° |
| 2026-05-01 12:45 | 40.90334 | 46.80658 | 37184 ft | 510 kts | 113° |
| 2026-05-01 12:45 | 40.87939 | 46.89462 | 37621 ft | 508 kts | 113° |
| 2026-05-01 12:46 | 40.85530 | 46.98231 | 37942 ft | 508 kts | 114° |
| 2026-05-01 12:46 | 40.83110 | 47.07003 | 38206 ft | 508 kts | 114° |
| 2026-05-01 12:46 | 40.80685 | 47.15779 | 38472 ft | 509 kts | 114° |
| 2026-05-01 12:46 | 40.78248 | 47.24554 | 38717 ft | 509 kts | 114° |
| 2026-05-01 12:47 | 40.75790 | 47.33309 | 38912 ft | 509 kts | 114° |
| 2026-05-01 12:47 | 40.73322 | 47.42089 | 39042 ft | 511 kts | 114° |
| 2026-05-01 12:47 | 40.68359 | 47.59724 | 39047 ft | 514 kts | 114° |
| 2026-05-01 12:48 | 40.63367 | 47.77350 | 39046 ft | 513 kts | 114° |
| 2026-05-01 12:48 | 40.58350 | 47.94939 | 39046 ft | 513 kts | 114° |
| 2026-05-01 12:49 | 40.53878 | 48.12832 | 39050 ft | 516 kts | 111° |
| 2026-05-01 12:49 | 40.49533 | 48.30799 | 39047 ft | 516 kts | 111° |
| 2026-05-01 12:50 | 40.45075 | 48.48722 | 39051 ft | 516 kts | 111° |
| 2026-05-01 12:50 | 40.40596 | 48.66617 | 39050 ft | 517 kts | 111° |
| 2026-05-01 12:51 | 40.36080 | 48.84536 | 39052 ft | 517 kts | 111° |
| 2026-05-01 12:52 | 40.29244 | 49.11378 | 39057 ft | 518 kts | 112° |
| 2026-05-01 12:52 | 40.22294 | 49.38178 | 39064 ft | 519 kts | 112° |
| 2026-05-01 12:53 | 40.15307 | 49.64986 | 39076 ft | 520 kts | 112° |
| 2026-05-01 12:54 | 40.10599 | 49.82866 | 39074 ft | 520 kts | 112° |
| 2026-05-01 12:54 | 40.03487 | 50.09650 | 39083 ft | 521 kts | 112° |
| 2026-05-01 12:55 | 39.96303 | 50.36418 | 39093 ft | 522 kts | 112° |
| 2026-05-01 12:56 | 39.91504 | 50.54143 | 39096 ft | 522 kts | 112° |
| 2026-05-01 12:56 | 39.86650 | 50.71947 | 39104 ft | 521 kts | 112° |
| 2026-05-01 12:57 | 39.81771 | 50.89716 | 39102 ft | 521 kts | 112° |
| 2026-05-01 12:57 | 39.74401 | 51.16325 | 39109 ft | 522 kts | 112° |
| 2026-05-01 12:58 | 39.69414 | 51.34175 | 39104 ft | 522 kts | 112° |
| 2026-05-01 12:59 | 39.61804 | 51.60503 | 39102 ft | 521 kts | 115° |
| 2026-05-01 12:59 | 39.53575 | 51.86612 | 39116 ft | 522 kts | 115° |
| 2026-05-01 13:00 | 39.45374 | 52.12710 | 39121 ft | 521 kts | 115° |
| 2026-05-01 13:01 | 39.37127 | 52.38692 | 39121 ft | 521 kts | 115° |
| 2026-05-01 13:02 | 39.28001 | 52.63990 | 39121 ft | 512 kts | 133° |
| 2026-05-01 13:07 | 38.15480 | 53.82836 | 39080 ft | 509 kts | 146° |
| 2026-05-01 13:07 | 38.09960 | 53.88501 | 39090 ft | 510 kts | 146° |
| 2026-05-01 13:08 | 37.98921 | 53.99797 | 39090 ft | 510 kts | 146° |
| 2026-05-01 13:08 | 37.87862 | 54.11068 | 39090 ft | 510 kts | 146° |
| 2026-05-01 13:09 | 37.76790 | 54.22306 | 39092 ft | 510 kts | 146° |
| 2026-05-01 13:09 | 37.65701 | 54.33519 | 39094 ft | 511 kts | 147° |
| 2026-05-01 13:10 | 37.54593 | 54.44707 | 39096 ft | 511 kts | 147° |
| 2026-05-01 13:10 | 37.43619 | 54.56123 | 39098 ft | 516 kts | 140° |
| 2026-05-01 13:11 | 37.33585 | 54.69084 | 39093 ft | 517 kts | 139° |
| 2026-05-01 13:11 | 37.23611 | 54.82132 | 39094 ft | 518 kts | 139° |
| 2026-05-01 13:12 | 37.13603 | 54.95116 | 39097 ft | 518 kts | 139° |
| 2026-05-01 13:12 | 37.03565 | 55.08085 | 39102 ft | 518 kts | 140° |
| 2026-05-01 13:13 | 36.93496 | 55.21043 | 39098 ft | 519 kts | 140° |
| 2026-05-01 13:13 | 36.83408 | 55.33974 | 39080 ft | 520 kts | 140° |
| 2026-05-01 13:14 | 36.73303 | 55.46874 | 39041 ft | 521 kts | 140° |
| 2026-05-01 13:14 | 36.63108 | 55.59720 | 39021 ft | 519 kts | 143° |
| 2026-05-01 13:15 | 36.52233 | 55.71463 | 39013 ft | 518 kts | 146° |
| 2026-05-01 13:15 | 36.41457 | 55.83177 | 38993 ft | 519 kts | 145° |
| 2026-05-01 13:16 | 36.30546 | 55.94890 | 38982 ft | 515 kts | 149° |
| 2026-05-01 13:16 | 36.19113 | 56.05547 | 38963 ft | 515 kts | 150° |
| 2026-05-01 13:17 | 35.96346 | 56.27101 | 38939 ft | 516 kts | 150° |
| 2026-05-01 13:18 | 35.79252 | 56.43219 | 38940 ft | 516 kts | 150° |
| 2026-05-01 13:18 | 35.67839 | 56.53946 | 38925 ft | 516 kts | 150° |
| 2026-05-01 13:19 | 35.56410 | 56.64639 | 38925 ft | 517 kts | 150° |
| 2026-05-01 13:20 | 35.39236 | 56.80642 | 38918 ft | 517 kts | 151° |
| 2026-05-01 13:20 | 35.27761 | 56.91286 | 38911 ft | 518 kts | 152° |
| 2026-05-01 13:21 | 35.10526 | 57.07200 | 38911 ft | 518 kts | 152° |
| 2026-05-01 13:21 | 34.99019 | 57.17776 | 38896 ft | 518 kts | 153° |
| 2026-05-01 13:22 | 34.87481 | 57.28355 | 38917 ft | 519 kts | 153° |
| 2026-05-01 13:22 | 34.75934 | 57.38892 | 38926 ft | 519 kts | 153° |
| 2026-05-01 13:23 | 34.64361 | 57.49419 | 38914 ft | 520 kts | 154° |
| 2026-05-01 13:23 | 34.52758 | 57.59942 | 38922 ft | 521 kts | 154° |
| 2026-05-01 13:24 | 34.41142 | 57.70455 | 38920 ft | 524 kts | 153° |
| 2026-05-01 13:25 | 34.24531 | 57.88240 | 38944 ft | 532 kts | 149° |
| 2026-05-01 13:25 | 34.13408 | 57.99994 | 38937 ft | 532 kts | 149° |
| 2026-05-01 13:26 | 34.02243 | 58.11713 | 38962 ft | 532 kts | 149° |
| 2026-05-01 13:26 | 33.91065 | 58.23414 | 38965 ft | 533 kts | 149° |
| 2026-05-01 13:27 | 33.79852 | 58.35111 | 38945 ft | 533 kts | 149° |
| 2026-05-01 13:27 | 33.63120 | 58.52486 | 38943 ft | 533 kts | 149° |
| 2026-05-01 13:28 | 33.46304 | 58.69854 | 38966 ft | 531 kts | 150° |
| 2026-05-01 13:29 | 33.23910 | 58.92842 | 38965 ft | 530 kts | 150° |
| 2026-05-01 13:31 | 32.89330 | 59.24132 | 38982 ft | 498 kts | 168° |
| 2026-05-01 13:32 | 32.57559 | 59.40109 | 38985 ft | 496 kts | 168° |
| 2026-05-01 13:33 | 32.25785 | 59.56046 | 38975 ft | 496 kts | 168° |
| 2026-05-01 13:34 | 32.00320 | 59.68727 | 38957 ft | 498 kts | 168° |
| 2026-05-01 13:35 | 31.81167 | 59.78215 | 38948 ft | 497 kts | 168° |
| 2026-05-01 13:36 | 31.62040 | 59.87648 | 38926 ft | 497 kts | 168° |
| 2026-05-01 13:36 | 31.42838 | 59.97066 | 38924 ft | 500 kts | 167° |
| 2026-05-01 13:37 | 31.29991 | 60.03367 | 38918 ft | 501 kts | 168° |
| 2026-05-01 13:37 | 31.17127 | 60.09643 | 38918 ft | 499 kts | 167° |
| 2026-05-01 13:38 | 30.97880 | 60.18991 | 38923 ft | 501 kts | 166° |
| 2026-05-01 13:39 | 30.84936 | 60.25262 | 38919 ft | 504 kts | 166° |
| 2026-05-01 13:39 | 30.71985 | 60.31519 | 38930 ft | 504 kts | 166° |
| 2026-05-01 13:40 | 30.59023 | 60.37761 | 38932 ft | 504 kts | 166° |
| 2026-05-01 13:40 | 30.46079 | 60.43980 | 38940 ft | 502 kts | 166° |
| 2026-05-01 13:41 | 30.33159 | 60.50161 | 38939 ft | 501 kts | 165° |
| 2026-05-01 13:41 | 30.20352 | 60.56277 | 38931 ft | 501 kts | 165° |
| 2026-05-01 13:42 | 30.07463 | 60.62413 | 38938 ft | 501 kts | 165° |
| 2026-05-01 13:42 | 29.94561 | 60.68539 | 38931 ft | 501 kts | 165° |
| 2026-05-01 13:43 | 29.81663 | 60.74633 | 38940 ft | 501 kts | 165° |
| 2026-05-01 13:43 | 29.68756 | 60.80719 | 38937 ft | 501 kts | 165° |
| 2026-05-01 13:44 | 29.55980 | 60.87225 | 38949 ft | 512 kts | 154° |
| 2026-05-01 13:44 | 29.50609 | 60.92778 | 38966 ft | 533 kts | 133° |
| 2026-05-01 13:44 | 29.47197 | 61.00431 | 38928 ft | 550 kts | 109° |
| 2026-05-01 13:45 | 29.44369 | 61.17757 | 38918 ft | 553 kts | 102° |
| 2026-05-01 13:45 | 29.42022 | 61.35191 | 38868 ft | 555 kts | 98° |
| 2026-05-01 13:46 | 29.40772 | 61.52793 | 38851 ft | 553 kts | 97° |
| 2026-05-01 13:46 | 29.39328 | 61.70358 | 38808 ft | 552 kts | 98° |
| 2026-05-01 13:47 | 29.37817 | 61.87832 | 38819 ft | 550 kts | 98° |
| 2026-05-01 13:47 | 29.36292 | 62.05291 | 38796 ft | 551 kts | 98° |
| 2026-05-01 13:48 | 29.34742 | 62.22783 | 38791 ft | 551 kts | 98° |
| 2026-05-01 13:48 | 29.33166 | 62.40299 | 38784 ft | 553 kts | 99° |
| 2026-05-01 13:49 | 29.31567 | 62.57814 | 38781 ft | 553 kts | 98° |
| 2026-05-01 13:49 | 29.29942 | 62.75351 | 38765 ft | 554 kts | 99° |
| 2026-05-01 13:50 | 29.28294 | 62.92887 | 38752 ft | 554 kts | 99° |
| 2026-05-01 13:50 | 29.26622 | 63.10425 | 38739 ft | 554 kts | 99° |
| 2026-05-01 13:51 | 29.24923 | 63.27984 | 38747 ft | 554 kts | 99° |
| 2026-05-01 13:51 | 29.23208 | 63.45509 | 38751 ft | 553 kts | 99° |
| 2026-05-01 13:52 | 29.21470 | 63.63009 | 38758 ft | 553 kts | 99° |
| 2026-05-01 13:52 | 29.19710 | 63.80495 | 38740 ft | 552 kts | 99° |
| 2026-05-01 13:53 | 29.18231 | 63.95008 | 38743 ft | 552 kts | 99° |
| 2026-05-01 13:53 | 29.15528 | 64.21141 | 38708 ft | 550 kts | 99° |
| 2026-05-01 13:54 | 29.13704 | 64.38506 | 38672 ft | 549 kts | 99° |
| 2026-05-01 13:54 | 29.12733 | 64.55935 | 38664 ft | 550 kts | 92° |
| 2026-05-01 13:55 | 29.12360 | 64.73441 | 38657 ft | 550 kts | 94° |
| 2026-05-01 13:55 | 29.11771 | 64.90928 | 38680 ft | 550 kts | 94° |
| 2026-05-01 13:56 | 29.11157 | 65.08377 | 38672 ft | 548 kts | 94° |
| 2026-05-01 13:56 | 29.10527 | 65.25778 | 38676 ft | 547 kts | 94° |
| 2026-05-01 13:57 | 29.09699 | 65.43026 | 38675 ft | 546 kts | 95° |
| 2026-05-01 13:57 | 29.08784 | 65.60462 | 38679 ft | 546 kts | 95° |
| 2026-05-01 13:58 | 29.07877 | 65.77801 | 38707 ft | 547 kts | 95° |
| 2026-05-01 13:58 | 29.06946 | 65.95155 | 38737 ft | 547 kts | 95° |
| 2026-05-01 13:59 | 29.05995 | 66.12455 | 38788 ft | 550 kts | 95° |
| 2026-05-01 13:59 | 29.05014 | 66.29885 | 38813 ft | 549 kts | 95° |
| 2026-05-01 14:00 | 29.04009 | 66.47324 | 38822 ft | 550 kts | 95° |
| 2026-05-01 14:00 | 29.03039 | 66.64789 | 38830 ft | 551 kts | 94° |
| 2026-05-01 14:01 | 29.02365 | 66.82301 | 38809 ft | 552 kts | 94° |
| 2026-05-01 14:01 | 29.01628 | 66.99789 | 38786 ft | 552 kts | 94° |
| 2026-05-01 14:02 | 29.00852 | 67.17320 | 38708 ft | 552 kts | 94° |
| 2026-05-01 14:02 | 29.00060 | 67.34788 | 38659 ft | 547 kts | 94° |
| 2026-05-01 14:03 | 28.99249 | 67.52135 | 38601 ft | 545 kts | 94° |
| 2026-05-01 14:03 | 28.98418 | 67.69385 | 38568 ft | 543 kts | 94° |
| 2026-05-01 14:04 | 28.97569 | 67.86610 | 38568 ft | 543 kts | 94° |
| 2026-05-01 14:04 | 28.96697 | 68.03841 | 38563 ft | 543 kts | 94° |
| 2026-05-01 14:05 | 28.95808 | 68.21070 | 38568 ft | 543 kts | 94° |
| 2026-05-01 14:05 | 28.94889 | 68.38311 | 38578 ft | 544 kts | 94° |
| 2026-05-01 14:06 | 28.93951 | 68.55564 | 38584 ft | 545 kts | 94° |
| 2026-05-01 14:06 | 28.91343 | 68.72448 | 38596 ft | 539 kts | 112° |
| 2026-05-01 14:07 | 28.85896 | 68.88255 | 38614 ft | 538 kts | 115° |
| 2026-05-01 14:08 | 28.77558 | 69.12045 | 38611 ft | 539 kts | 114° |
| 2026-05-01 14:08 | 28.72000 | 69.27908 | 38602 ft | 540 kts | 114° |
| 2026-05-01 14:09 | 28.66405 | 69.43795 | 38592 ft | 540 kts | 114° |
| 2026-05-01 14:09 | 28.60783 | 69.59660 | 38588 ft | 541 kts | 114° |
| 2026-05-01 14:10 | 28.55140 | 69.75533 | 38561 ft | 541 kts | 114° |
| 2026-05-01 14:10 | 28.49509 | 69.91369 | 38573 ft | 539 kts | 114° |
| 2026-05-01 14:11 | 28.43885 | 70.07134 | 38579 ft | 538 kts | 114° |
| 2026-05-01 14:11 | 28.37041 | 70.31270 | 38585 ft | 540 kts | 89° |
| 2026-05-01 14:12 | 28.37929 | 70.48286 | 38576 ft | 539 kts | 85° |
| 2026-05-01 14:12 | 28.39074 | 70.65271 | 38578 ft | 539 kts | 85° |
| 2026-05-01 14:13 | 28.39945 | 70.79397 | 38583 ft | 539 kts | 85° |
| 2026-05-01 14:13 | 28.41144 | 70.99274 | 38582 ft | 540 kts | 85° |
| 2026-05-01 14:14 | 28.42148 | 71.16273 | 38585 ft | 539 kts | 85° |
| 2026-05-01 14:14 | 28.43132 | 71.33281 | 38585 ft | 539 kts | 85° |
| 2026-05-01 14:15 | 28.44094 | 71.50298 | 38589 ft | 540 kts | 86° |
| 2026-05-01 14:15 | 28.45035 | 71.67312 | 38584 ft | 539 kts | 86° |
| 2026-05-01 14:16 | 28.45955 | 71.84312 | 38587 ft | 539 kts | 86° |
| 2026-05-01 14:16 | 28.46852 | 72.01313 | 38578 ft | 539 kts | 85° |
| 2026-05-01 14:17 | 28.47703 | 72.18316 | 38577 ft | 539 kts | 88° |
| 2026-05-01 14:17 | 28.46718 | 72.26720 | 38586 ft | 538 kts | 108° |
| 2026-05-01 14:17 | 28.43716 | 72.34480 | 38584 ft | 537 kts | 118° |
| 2026-05-01 14:18 | 28.36741 | 72.49370 | 38582 ft | 538 kts | 120° |
| 2026-05-01 14:18 | 28.30864 | 72.61927 | 38586 ft | 538 kts | 119° |
| 2026-05-01 14:19 | 28.22719 | 72.79405 | 38579 ft | 539 kts | 119° |
| 2026-05-01 14:19 | 28.15688 | 72.94427 | 38567 ft | 539 kts | 119° |
| 2026-05-01 14:20 | 28.05097 | 73.16947 | 38594 ft | 540 kts | 119° |
| 2026-05-01 14:21 | 27.98010 | 73.31948 | 38590 ft | 540 kts | 119° |
| 2026-05-01 14:21 | 27.90896 | 73.46954 | 38596 ft | 540 kts | 119° |
| 2026-05-01 14:22 | 27.80205 | 73.69402 | 38608 ft | 540 kts | 119° |
| 2026-05-01 14:22 | 27.73108 | 73.84239 | 38599 ft | 540 kts | 119° |
| 2026-05-01 14:23 | 27.66355 | 73.99382 | 38613 ft | 542 kts | 116° |
| 2026-05-01 14:23 | 27.59624 | 74.14615 | 38627 ft | 543 kts | 117° |
| 2026-05-01 14:24 | 27.52827 | 74.29816 | 38629 ft | 543 kts | 117° |
| 2026-05-01 14:24 | 27.46013 | 74.45000 | 38629 ft | 543 kts | 117° |
| 2026-05-01 14:25 | 27.39193 | 74.60146 | 38653 ft | 542 kts | 117° |
| 2026-05-01 14:25 | 27.32355 | 74.75278 | 38646 ft | 543 kts | 117° |
| 2026-05-01 14:26 | 27.22067 | 74.97940 | 38658 ft | 542 kts | 117° |
| 2026-05-01 14:27 | 27.15192 | 75.13017 | 38682 ft | 543 kts | 117° |
| 2026-05-01 14:27 | 27.08294 | 75.28089 | 38672 ft | 543 kts | 117° |
| 2026-05-01 14:28 | 26.97913 | 75.50671 | 38692 ft | 542 kts | 117° |
| 2026-05-01 14:28 | 26.90976 | 75.65681 | 38713 ft | 542 kts | 117° |
| 2026-05-01 14:29 | 26.84030 | 75.80665 | 38717 ft | 541 kts | 117° |
| 2026-05-01 14:30 | 26.69294 | 76.09880 | 38705 ft | 538 kts | 119° |
| 2026-05-01 14:31 | 26.58135 | 76.31682 | 38709 ft | 539 kts | 119° |
| 2026-05-01 14:31 | 26.50680 | 76.46190 | 38706 ft | 539 kts | 120° |
| 2026-05-01 14:32 | 26.43300 | 76.60752 | 38719 ft | 539 kts | 117° |
| 2026-05-01 14:32 | 26.36327 | 76.75549 | 38720 ft | 539 kts | 117° |
| 2026-05-01 14:33 | 26.29272 | 76.90291 | 38724 ft | 539 kts | 117° |
| 2026-05-01 14:33 | 26.22192 | 77.04993 | 38729 ft | 539 kts | 118° |
| 2026-05-01 14:34 | 26.15135 | 77.19604 | 38733 ft | 540 kts | 118° |
| 2026-05-01 14:34 | 26.11573 | 77.26953 | 39062 ft | 538 kts | 118° |
| 2026-05-01 14:34 | 26.08012 | 77.34248 | 39440 ft | 536 kts | 118° |
| 2026-05-01 14:34 | 26.04457 | 77.41517 | 39749 ft | 535 kts | 118° |
| 2026-05-01 14:35 | 26.00902 | 77.48783 | 40021 ft | 534 kts | 117° |
| 2026-05-01 14:35 | 25.97344 | 77.56046 | 40199 ft | 535 kts | 117° |
| 2026-05-01 14:35 | 25.93792 | 77.63285 | 40576 ft | 532 kts | 117° |
| 2026-05-01 14:35 | 25.90254 | 77.70484 | 40754 ft | 531 kts | 117° |
| 2026-05-01 14:36 | 25.86713 | 77.77678 | 40752 ft | 531 kts | 117° |
| 2026-05-01 14:36 | 25.79620 | 77.92053 | 40755 ft | 531 kts | 118° |
| 2026-05-01 14:37 | 25.72519 | 78.06397 | 40760 ft | 529 kts | 118° |
| 2026-05-01 14:37 | 25.65426 | 78.20681 | 40763 ft | 528 kts | 118° |
| 2026-05-01 14:38 | 25.58338 | 78.34955 | 40760 ft | 528 kts | 117° |
| 2026-05-01 14:38 | 25.51322 | 78.49258 | 40765 ft | 528 kts | 117° |
| 2026-05-01 14:39 | 25.44288 | 78.63529 | 40769 ft | 528 kts | 117° |
| 2026-05-01 14:39 | 25.37249 | 78.77756 | 40771 ft | 526 kts | 118° |
| 2026-05-01 14:40 | 25.30211 | 78.91939 | 40771 ft | 526 kts | 118° |
| 2026-05-01 14:40 | 25.23166 | 79.06092 | 40771 ft | 526 kts | 118° |
| 2026-05-01 14:41 | 25.16135 | 79.20176 | 40763 ft | 528 kts | 118° |
| 2026-05-01 14:41 | 25.09033 | 79.34354 | 40763 ft | 528 kts | 118° |
| 2026-05-01 14:42 | 25.01925 | 79.48505 | 40755 ft | 527 kts | 118° |
| 2026-05-01 14:42 | 24.95963 | 79.60339 | 40757 ft | 527 kts | 118° |
| 2026-05-01 14:43 | 24.88839 | 79.74442 | 40759 ft | 527 kts | 118° |
| 2026-05-01 14:43 | 24.81709 | 79.88528 | 40753 ft | 526 kts | 117° |
| 2026-05-01 14:44 | 24.76761 | 80.03493 | 40749 ft | 524 kts | 105° |
| 2026-05-01 14:44 | 24.70247 | 80.26443 | 40742 ft | 524 kts | 105° |
| 2026-05-01 14:45 | 24.63649 | 80.49318 | 40746 ft | 523 kts | 105° |
| 2026-05-01 14:46 | 24.59231 | 80.64562 | 40751 ft | 524 kts | 106° |
| 2026-05-01 14:46 | 24.52558 | 80.87461 | 40749 ft | 525 kts | 106° |
| 2026-05-01 14:47 | 24.48092 | 81.02710 | 40745 ft | 524 kts | 106° |
| 2026-05-01 14:48 | 24.41369 | 81.25545 | 40741 ft | 523 kts | 106° |
| 2026-05-01 14:48 | 24.34645 | 81.48244 | 40733 ft | 521 kts | 106° |
| 2026-05-01 14:49 | 24.25625 | 81.78481 | 40735 ft | 522 kts | 107° |
| 2026-05-01 14:50 | 24.16466 | 82.08683 | 40740 ft | 522 kts | 108° |
| 2026-05-01 14:51 | 24.09321 | 82.31156 | 40736 ft | 521 kts | 108° |
| 2026-05-01 14:52 | 24.02191 | 82.53596 | 40745 ft | 520 kts | 108° |
| 2026-05-01 14:53 | 23.95030 | 82.75999 | 40737 ft | 520 kts | 108° |
| 2026-05-01 14:53 | 23.90245 | 82.90898 | 40724 ft | 518 kts | 108° |
| 2026-05-01 14:54 | 23.85457 | 83.05753 | 40735 ft | 518 kts | 108° |
| 2026-05-01 14:54 | 23.80655 | 83.20593 | 40751 ft | 520 kts | 108° |
| 2026-05-01 14:55 | 23.75805 | 83.35530 | 40754 ft | 522 kts | 108° |
| 2026-05-01 14:55 | 23.70947 | 83.50459 | 40764 ft | 522 kts | 108° |
| 2026-05-01 14:56 | 23.66083 | 83.65399 | 40770 ft | 523 kts | 108° |
| 2026-05-01 14:56 | 23.61201 | 83.80337 | 40795 ft | 524 kts | 108° |
| 2026-05-01 14:57 | 23.56280 | 83.95335 | 40800 ft | 526 kts | 108° |
| 2026-05-01 14:57 | 23.48867 | 84.17829 | 40824 ft | 526 kts | 108° |
| 2026-05-01 14:58 | 23.43906 | 84.32812 | 40832 ft | 526 kts | 108° |
| 2026-05-01 14:58 | 23.38924 | 84.47805 | 40843 ft | 526 kts | 108° |
| 2026-05-01 14:59 | 23.33932 | 84.62773 | 40850 ft | 526 kts | 108° |
| 2026-05-01 14:59 | 23.28927 | 84.77730 | 40848 ft | 527 kts | 109° |
| 2026-05-01 15:00 | 23.21379 | 85.00180 | 40865 ft | 527 kts | 109° |
| 2026-05-01 15:01 | 23.16323 | 85.15154 | 40869 ft | 529 kts | 109° |
| 2026-05-01 15:01 | 23.11269 | 85.30064 | 40865 ft | 529 kts | 109° |
| 2026-05-01 15:02 | 23.06172 | 85.45051 | 40859 ft | 529 kts | 109° |
| 2026-05-01 15:02 | 23.01054 | 85.60048 | 40846 ft | 529 kts | 109° |
| 2026-05-01 15:03 | 22.95921 | 85.75034 | 40834 ft | 529 kts | 109° |
| 2026-05-01 15:03 | 22.90782 | 85.89987 | 40825 ft | 529 kts | 109° |
| 2026-05-01 15:04 | 22.85626 | 86.04938 | 40826 ft | 529 kts | 109° |
| 2026-05-01 15:04 | 22.79883 | 86.19593 | 40823 ft | 529 kts | 121° |
| 2026-05-01 15:05 | 22.71829 | 86.32981 | 40825 ft | 531 kts | 124° |
| 2026-05-01 15:05 | 22.63629 | 86.46265 | 40818 ft | 531 kts | 123° |
| 2026-05-01 15:06 | 22.55453 | 86.59562 | 40813 ft | 531 kts | 123° |
| 2026-05-01 15:06 | 22.47222 | 86.72917 | 40800 ft | 534 kts | 123° |
| 2026-05-01 15:07 | 22.38988 | 86.86240 | 40790 ft | 532 kts | 124° |
| 2026-05-01 15:07 | 22.30784 | 86.99483 | 40785 ft | 529 kts | 124° |
| 2026-05-01 15:08 | 22.22650 | 87.12578 | 40780 ft | 528 kts | 124° |
| 2026-05-01 15:08 | 22.14544 | 87.25793 | 40778 ft | 528 kts | 119° |
| 2026-05-01 15:09 | 22.07453 | 87.39662 | 40614 ft | 527 kts | 118° |
| 2026-05-01 15:09 | 22.03969 | 87.46604 | 42480 ft | 528 kts | 118° |
| 2026-05-01 15:09 | 22.00450 | 87.53589 | 40464 ft | 532 kts | 119° |
| 2026-05-01 15:09 | 21.96923 | 87.60567 | 40709 ft | 527 kts | 119° |
| 2026-05-01 15:10 | 21.93408 | 87.67505 | 40803 ft | 531 kts | 119° |
| 2026-05-01 15:10 | 21.82767 | 87.88465 | 40804 ft | 532 kts | 120° |
| 2026-05-01 15:11 | 21.72115 | 88.09363 | 40810 ft | 530 kts | 120° |
| 2026-05-01 15:12 | 21.65023 | 88.23232 | 40798 ft | 529 kts | 120° |
| 2026-05-01 15:12 | 21.54376 | 88.43983 | 40797 ft | 529 kts | 120° |
| 2026-05-01 15:14 | 21.36227 | 88.78203 | 40791 ft | 524 kts | 133° |
| 2026-05-01 15:14 | 21.20191 | 88.93853 | 40796 ft | 519 kts | 142° |
| 2026-05-01 15:15 | 20.98488 | 89.14141 | 40798 ft | 520 kts | 142° |
| 2026-05-01 15:16 | 20.88389 | 89.25209 | 40799 ft | 524 kts | 130° |
| 2026-05-01 15:16 | 20.79677 | 89.37655 | 40786 ft | 522 kts | 129° |
| 2026-05-01 15:18 | 20.58048 | 89.68492 | 40817 ft | 518 kts | 129° |
| 2026-05-01 15:19 | 20.40722 | 89.93043 | 40815 ft | 517 kts | 129° |
| 2026-05-01 15:19 | 20.27710 | 90.11412 | 40818 ft | 520 kts | 127° |
| 2026-05-01 15:20 | 20.14628 | 90.29821 | 40820 ft | 519 kts | 127° |
| 2026-05-01 15:21 | 20.05923 | 90.42039 | 40827 ft | 517 kts | 127° |
| 2026-05-01 15:21 | 19.97222 | 90.54225 | 40831 ft | 517 kts | 127° |
| 2026-05-01 15:22 | 19.84160 | 90.72474 | 40838 ft | 517 kts | 127° |
| 2026-05-01 15:22 | 19.75445 | 90.84621 | 40845 ft | 517 kts | 128° |
| 2026-05-01 15:23 | 19.66723 | 90.96749 | 40853 ft | 516 kts | 128° |
| 2026-05-01 15:23 | 19.58001 | 91.08854 | 40864 ft | 516 kts | 128° |
| 2026-05-01 15:24 | 19.49257 | 91.20967 | 40866 ft | 518 kts | 128° |
| 2026-05-01 15:24 | 19.40497 | 91.33075 | 40876 ft | 518 kts | 128° |
| 2026-05-01 15:25 | 19.31726 | 91.45175 | 40881 ft | 518 kts | 128° |
| 2026-05-01 15:25 | 19.22935 | 91.57278 | 40878 ft | 520 kts | 129° |
| 2026-05-01 15:26 | 19.14093 | 91.69429 | 40879 ft | 522 kts | 129° |
| 2026-05-01 15:26 | 19.05238 | 91.81574 | 40878 ft | 520 kts | 129° |
| 2026-05-01 15:27 | 18.96451 | 91.93600 | 40879 ft | 520 kts | 129° |
| 2026-05-01 15:28 | 18.83064 | 92.11687 | 40873 ft | 520 kts | 130° |
| 2026-05-01 15:28 | 18.74087 | 92.23673 | 40873 ft | 520 kts | 129° |
| 2026-05-01 15:29 | 18.60665 | 92.41592 | 40870 ft | 521 kts | 130° |
| 2026-05-01 15:30 | 18.44136 | 92.63587 | 40876 ft | 521 kts | 130° |
| 2026-05-01 15:31 | 18.17269 | 92.99178 | 40873 ft | 517 kts | 130° |
| 2026-05-01 15:32 | 17.99368 | 93.22781 | 40870 ft | 513 kts | 129° |
| 2026-05-01 15:34 | 17.72620 | 93.57892 | 40879 ft | 513 kts | 129° |